sensor_id;sensor_type;location;lat;lon;timestamp;temperature;humidity
55365;DHT22;41245;45.384;20.390;2023-07-09T04:01:51;563.70;128.00
55365;DHT22;41245;45.384;20.390;2023-07-09T04:04:17;589.20;128.00
55365;DHT22;41245;45.384;20.390;2023-07-09T04:06:46;640.40;307.20
55365;DHT22;41245;45.384;20.390;2023-07-09T04:09:12;716.80;1024.00
55365;DHT22;41245;45.384;20.390;2023-07-09T04:11:38;743.00;1254.40
55365;DHT22;41245;45.384;20.390;2023-07-09T04:14:03;743.20;1126.40
55365;DHT22;41245;45.384;20.390;2023-07-09T04:16:29;768.80;1203.20
55365;DHT22;41245;45.384;20.390;2023-07-09T04:18:55;819.20;1356.80
55365;DHT22;41245;45.384;20.390;2023-07-09T04:21:20;819.80;1433.60
55365;DHT22;41245;45.384;20.390;2023-07-09T04:23:46;845.40;1612.80
55365;DHT22;41245;45.384;20.390;2023-07-09T04:26:13;870.90;1740.80
55365;DHT22;41245;45.384;20.390;2023-07-09T04:28:39;896.30;1843.20
55365;DHT22;41245;45.384;20.390;2023-07-09T04:31:05;921.70;2048.00
55365;DHT22;41245;45.384;20.390;2023-07-09T04:35:57;948.00;2278.40
55365;DHT22;41245;45.384;20.390;2023-07-09T04:38:23;947.90;2304.00
55365;DHT22;41245;45.384;20.390;2023-07-09T04:40:48;947.80;2355.20
55365;DHT22;41245;45.384;20.390;2023-07-09T04:43:14;947.60;2304.00
55365;DHT22;41245;45.384;20.390;2023-07-09T04:45:40;948.00;2380.80
55365;DHT22;41245;45.384;20.390;2023-07-09T04:48:06;973.30;2432.00
55365;DHT22;41245;45.384;20.390;2023-07-09T04:50:33;973.40;2432.00
55365;DHT22;41245;45.384;20.390;2023-07-09T04:53:01;973.10;2432.00
55365;DHT22;41245;45.384;20.390;2023-07-09T04:57:53;871.20;1920.00
55365;DHT22;41245;45.384;20.390;2023-07-09T05:46:38;1024.30;2432.00
55365;DHT22;41245;45.384;20.390;2023-07-09T05:49:04;1024.20;2432.00
55365;DHT22;41245;45.384;20.390;2023-07-09T05:51:30;1024.80;2432.00
55365;DHT22;41245;45.384;20.390;2023-07-09T05:53:56;1049.70;2432.00
55365;DHT22;41245;45.384;20.390;2023-07-09T05:56:22;1024.10;2432.00
55365;DHT22;41245;45.384;20.390;2023-07-09T05:58:48;1024.20;2432.00
55365;DHT22;41245;45.384;20.390;2023-07-09T06:06:06;1075.60;2432.00
55365;DHT22;41245;45.384;20.390;2023-07-09T06:08:32;1101.30;2432.00
55365;DHT22;41245;45.384;20.390;2023-07-09T06:11:00;1126.60;2432.00
55365;DHT22;41245;45.384;20.390;2023-07-09T06:13:28;1152.30;2432.00
55365;DHT22;41245;45.384;20.390;2023-07-09T06:15:56;1152.30;2432.00
55365;DHT22;41245;45.384;20.390;2023-07-09T06:18:23;1152.90;2432.00
55365;DHT22;41245;45.384;20.390;2023-07-09T06:20:51;1152.90;2432.00
55365;DHT22;41245;45.384;20.390;2023-07-09T06:38:05;1152.00;2432.00
55365;DHT22;41245;45.384;20.390;2023-07-09T06:40:31;1075.90;2432.00
55365;DHT22;41245;45.384;20.390;2023-07-09T06:42:57;999.20;2432.00
55365;DHT22;41245;45.384;20.390;2023-07-09T06:45:24;947.40;2432.00
55365;DHT22;41245;45.384;20.390;2023-07-09T06:47:49;896.30;2329.60
55365;DHT22;41245;45.384;20.390;2023-07-09T06:50:15;845.70;2201.60
55365;DHT22;41245;45.384;20.390;2023-07-09T06:52:41;844.80;1971.20
55365;DHT22;41245;45.384;20.390;2023-07-09T06:55:08;819.20;1817.60
55365;DHT22;41245;45.384;20.390;2023-07-09T06:57:33;793.80;1689.60
55365;DHT22;41245;45.384;20.390;2023-07-09T06:59:59;768.70;1536.00
55365;DHT22;41245;45.384;20.390;2023-07-09T07:02:25;768.10;1510.40
55365;DHT22;41245;45.384;20.390;2023-07-09T07:04:51;743.20;1587.20
55365;DHT22;41245;45.384;20.390;2023-07-09T07:07:17;742.90;1331.20
55365;DHT22;41245;45.384;20.390;2023-07-09T07:09:42;742.80;1536.00
55365;DHT22;41245;45.384;20.390;2023-07-09T07:12:08;742.50;1382.40
55365;DHT22;41245;45.384;20.390;2023-07-09T07:14:34;742.50;1280.00
55365;DHT22;41245;45.384;20.390;2023-07-09T07:17:00;742.40;1228.80
55365;DHT22;41245;45.384;20.390;2023-07-09T07:19:26;717.70;1254.40
55365;DHT22;41245;45.384;20.390;2023-07-09T07:21:52;742.40;1280.00
55365;DHT22;41245;45.384;20.390;2023-07-09T07:24:18;717.70;1152.00
55365;DHT22;41245;45.384;20.390;2023-07-09T07:26:44;717.60;1203.20
55365;DHT22;41245;45.384;20.390;2023-07-09T07:29:10;717.70;1459.20
55365;DHT22;41245;45.384;20.390;2023-07-09T07:31:35;717.60;1305.60
55365;DHT22;41245;45.384;20.390;2023-07-09T07:34:01;717.60;1152.00
55365;DHT22;41245;45.384;20.390;2023-07-09T07:36:27;717.50;1228.80
55365;DHT22;41245;45.384;20.390;2023-07-09T07:38:52;717.50;1254.40
55365;DHT22;41245;45.384;20.390;2023-07-09T07:41:18;717.60;1203.20
55365;DHT22;41245;45.384;20.390;2023-07-09T07:43:44;717.60;1331.20
55365;DHT22;41245;45.384;20.390;2023-07-09T07:46:09;717.30;1228.80
55365;DHT22;41245;45.384;20.390;2023-07-09T07:48:35;717.30;1280.00
55365;DHT22;41245;45.384;20.390;2023-07-09T07:51:02;717.60;1228.80
55365;DHT22;41245;45.384;20.390;2023-07-09T07:53:29;742.40;1228.80
55365;DHT22;41245;45.384;20.390;2023-07-09T07:55:57;742.50;1280.00
55365;DHT22;41245;45.384;20.390;2023-07-09T07:58:23;742.60;1305.60
55365;DHT22;41245;45.384;20.390;2023-07-09T08:00:49;742.70;1254.40
55365;DHT22;41245;45.384;20.390;2023-07-09T08:03:14;742.70;1356.80
55365;DHT22;41245;45.384;20.390;2023-07-09T08:05:40;742.90;1254.40
55365;DHT22;41245;45.384;20.390;2023-07-09T08:08:06;742.70;1228.80
55365;DHT22;41245;45.384;20.390;2023-07-09T08:10:32;742.70;1331.20
55365;DHT22;41245;45.384;20.390;2023-07-09T08:12:58;742.60;1382.40
55365;DHT22;41245;45.384;20.390;2023-07-09T08:15:27;742.60;1356.80
55365;DHT22;41245;45.384;20.390;2023-07-09T08:17:53;742.50;1331.20
55365;DHT22;41245;45.384;20.390;2023-07-09T08:20:19;742.60;1305.60
55365;DHT22;41245;45.384;20.390;2023-07-09T08:22:44;742.90;1382.40
55365;DHT22;41245;45.384;20.390;2023-07-09T08:25:11;742.80;1254.40
55365;DHT22;41245;45.384;20.390;2023-07-09T08:27:37;742.70;1280.00
55365;DHT22;41245;45.384;20.390;2023-07-09T08:30:03;742.80;1280.00
55365;DHT22;41245;45.384;20.390;2023-07-09T08:32:29;742.90;1536.00
55365;DHT22;41245;45.384;20.390;2023-07-09T08:34:55;743.00;1536.00
55365;DHT22;41245;45.384;20.390;2023-07-09T08:37:21;743.20;1433.60
55365;DHT22;41245;45.384;20.390;2023-07-09T08:39:46;743.30;1382.40
55365;DHT22;41245;45.384;20.390;2023-07-09T08:42:17;768.00;1484.80
55365;DHT22;41245;45.384;20.390;2023-07-09T08:44:59;768.00;1510.40
55365;DHT22;41245;45.384;20.390;2023-07-09T08:50:21;768.00;1612.80
55365;DHT22;41245;45.384;20.390;2023-07-09T08:52:48;768.00;1510.40
55365;DHT22;41245;45.384;20.390;2023-07-09T08:55:18;768.10;1510.40
55365;DHT22;41245;45.384;20.390;2023-07-09T08:57:50;768.10;1408.00
55365;DHT22;41245;45.384;20.390;2023-07-09T09:00:32;768.00;1356.80
55365;DHT22;41245;45.384;20.390;2023-07-09T09:03:05;768.10;1408.00
55365;DHT22;41245;45.384;20.390;2023-07-09T09:05:33;768.30;1459.20
55365;DHT22;41245;45.384;20.390;2023-07-09T09:11:20;768.20;1408.00
55365;DHT22;41245;45.384;20.390;2023-07-09T09:13:48;768.20;1484.80
55365;DHT22;41245;45.384;20.390;2023-07-09T09:16:38;768.40;1510.40
55365;DHT22;41245;45.384;20.390;2023-07-09T09:22:07;768.60;1612.80
55365;DHT22;41245;45.384;20.390;2023-07-09T09:27:20;768.90;1587.20
55365;DHT22;41245;45.384;20.390;2023-07-09T09:29:46;793.60;1664.00
55365;DHT22;41245;45.384;20.390;2023-07-09T09:32:36;768.50;1561.60
55365;DHT22;41245;45.384;20.390;2023-07-09T09:35:13;768.80;1587.20
55365;DHT22;41245;45.384;20.390;2023-07-09T09:37:39;768.90;1612.80
55365;DHT22;41245;45.384;20.390;2023-07-09T09:40:08;793.60;1689.60
55365;DHT22;41245;45.384;20.390;2023-07-09T09:42:34;793.70;1715.20
55365;DHT22;41245;45.384;20.390;2023-07-09T09:45:00;793.80;1689.60
55365;DHT22;41245;45.384;20.390;2023-07-09T09:47:27;793.90;1664.00
55365;DHT22;41245;45.384;20.390;2023-07-09T09:49:54;794.00;1638.40
55365;DHT22;41245;45.384;20.390;2023-07-09T09:52:23;794.10;1894.40
55365;DHT22;41245;45.384;20.390;2023-07-09T09:54:54;794.10;1894.40
55365;DHT22;41245;45.384;20.390;2023-07-09T09:57:24;794.10;1740.80
55365;DHT22;41245;45.384;20.390;2023-07-09T09:59:50;794.10;1894.40
55365;DHT22;41245;45.384;20.390;2023-07-09T10:02:22;794.10;1638.40
55365;DHT22;41245;45.384;20.390;2023-07-09T10:04:48;794.20;1612.80
55365;DHT22;41245;45.384;20.390;2023-07-09T10:09:54;794.30;1664.00
55365;DHT22;41245;45.384;20.390;2023-07-09T10:12:37;794.10;1689.60
55365;DHT22;41245;45.384;20.390;2023-07-09T10:33:13;819.20;1817.60
55365;DHT22;41245;45.384;20.390;2023-07-09T10:35:50;819.70;1894.40
55365;DHT22;41245;45.384;20.390;2023-07-09T10:38:28;819.80;2022.40
55365;DHT22;41245;45.384;20.390;2023-07-09T10:40:59;819.80;1894.40
55365;DHT22;41245;45.384;20.390;2023-07-09T10:43:44;819.40;1715.20
55365;DHT22;41245;45.384;20.390;2023-07-09T10:46:16;819.40;1817.60
55365;DHT22;41245;45.384;20.390;2023-07-09T10:48:45;794.50;1817.60
55365;DHT22;41245;45.384;20.390;2023-07-09T10:51:32;819.20;1689.60
55365;DHT22;41245;45.384;20.390;2023-07-09T10:56:32;819.40;1817.60
55365;DHT22;41245;45.384;20.390;2023-07-09T11:01:43;819.50;1689.60
55365;DHT22;41245;45.384;20.390;2023-07-09T11:04:37;819.80;1740.80
55365;DHT22;41245;45.384;20.390;2023-07-09T11:07:11;819.80;1894.40
55365;DHT22;41245;45.384;20.390;2023-07-09T11:09:46;819.80;1868.80
55365;DHT22;41245;45.384;20.390;2023-07-09T11:12:17;819.70;1971.20
55365;DHT22;41245;45.384;20.390;2023-07-09T11:14:55;819.50;1792.00
55365;DHT22;41245;45.384;20.390;2023-07-09T11:17:22;820.00;1817.60
55365;DHT22;41245;45.384;20.390;2023-07-09T11:19:59;820.10;1920.00
55365;DHT22;41245;45.384;20.390;2023-07-09T11:22:37;820.10;1920.00
55365;DHT22;41245;45.384;20.390;2023-07-09T11:25:13;844.80;1996.80
55365;DHT22;41245;45.384;20.390;2023-07-09T11:27:49;844.90;1920.00
55365;DHT22;41245;45.384;20.390;2023-07-09T11:32:46;844.80;2176.00
55365;DHT22;41245;45.384;20.390;2023-07-09T11:35:23;844.90;2150.40
55365;DHT22;41245;45.384;20.390;2023-07-09T11:37:49;844.90;2048.00
55365;DHT22;41245;45.384;20.390;2023-07-09T11:40:16;844.90;2099.20
55365;DHT22;41245;45.384;20.390;2023-07-09T11:42:52;820.10;1843.20
55365;DHT22;41245;45.384;20.390;2023-07-09T11:45:32;820.00;1920.00
55365;DHT22;41245;45.384;20.390;2023-07-09T11:48:15;820.00;1945.60
55365;DHT22;41245;45.384;20.390;2023-07-09T11:50:49;819.80;1868.80
55365;DHT22;41245;45.384;20.390;2023-07-09T11:53:30;820.10;1843.20
55365;DHT22;41245;45.384;20.390;2023-07-09T11:55:59;844.90;2022.40
55365;DHT22;41245;45.384;20.390;2023-07-09T11:58:24;845.10;1945.60
55365;DHT22;41245;45.384;20.390;2023-07-09T12:00:54;844.80;1868.80
55365;DHT22;41245;45.384;20.390;2023-07-09T12:03:24;844.80;2022.40
55365;DHT22;41245;45.384;20.390;2023-07-09T12:05:55;844.80;2099.20
55365;DHT22;41245;45.384;20.390;2023-07-09T12:08:28;844.90;2201.60
55365;DHT22;41245;45.384;20.390;2023-07-09T12:10:56;844.80;2073.60
55365;DHT22;41245;45.384;20.390;2023-07-09T12:13:22;844.80;2073.60
55365;DHT22;41245;45.384;20.390;2023-07-09T12:15:47;844.80;2048.00
55365;DHT22;41245;45.384;20.390;2023-07-09T12:18:15;844.80;1996.80
55365;DHT22;41245;45.384;20.390;2023-07-09T12:20:48;845.10;2022.40
55365;DHT22;41245;45.384;20.390;2023-07-09T12:23:27;844.80;1996.80
55365;DHT22;41245;45.384;20.390;2023-07-09T12:25:54;845.10;2176.00
55365;DHT22;41245;45.384;20.390;2023-07-09T12:28:21;845.10;2099.20
55365;DHT22;41245;45.384;20.390;2023-07-09T12:30:51;845.20;2099.20
55365;DHT22;41245;45.384;20.390;2023-07-09T12:33:27;845.20;2124.80
55365;DHT22;41245;45.384;20.390;2023-07-09T12:35:58;845.30;2099.20
55365;DHT22;41245;45.384;20.390;2023-07-09T12:38:27;845.30;1971.20
55365;DHT22;41245;45.384;20.390;2023-07-09T12:40:55;845.10;1920.00
55365;DHT22;41245;45.384;20.390;2023-07-09T12:43:29;845.10;1920.00
55365;DHT22;41245;45.384;20.390;2023-07-09T12:45:58;845.00;1920.00
55365;DHT22;41245;45.384;20.390;2023-07-09T12:48:27;844.80;1894.40
55365;DHT22;41245;45.384;20.390;2023-07-09T12:50:57;820.00;1971.20
55365;DHT22;41245;45.384;20.390;2023-07-09T12:53:25;820.00;1971.20
55365;DHT22;41245;45.384;20.390;2023-07-09T12:55:59;819.90;1945.60
55365;DHT22;41245;45.384;20.390;2023-07-09T12:58:29;820.10;2022.40
55365;DHT22;41245;45.384;20.390;2023-07-09T13:00:56;845.00;2048.00
55365;DHT22;41245;45.384;20.390;2023-07-09T13:03:29;845.10;1996.80
55365;DHT22;41245;45.384;20.390;2023-07-09T13:06:04;845.10;1996.80
55365;DHT22;41245;45.384;20.390;2023-07-09T13:08:32;845.30;2099.20
55365;DHT22;41245;45.384;20.390;2023-07-09T13:11:00;845.40;2099.20
55365;DHT22;41245;45.384;20.390;2023-07-09T13:13:26;845.50;2073.60
55365;DHT22;41245;45.384;20.390;2023-07-09T13:15:57;845.60;2124.80
55365;DHT22;41245;45.384;20.390;2023-07-09T13:18:25;870.50;2201.60
55365;DHT22;41245;45.384;20.390;2023-07-09T13:20:51;845.60;2201.60
55365;DHT22;41245;45.384;20.390;2023-07-09T13:23:24;845.40;2124.80
55365;DHT22;41245;45.384;20.390;2023-07-09T13:25:50;845.30;2022.40
55365;DHT22;41245;45.384;20.390;2023-07-09T13:28:23;845.20;2176.00
55365;DHT22;41245;45.384;20.390;2023-07-09T13:31:17;845.40;2150.40
55365;DHT22;41245;45.384;20.390;2023-07-09T13:33:50;845.40;2176.00
55365;DHT22;41245;45.384;20.390;2023-07-09T13:36:18;845.50;2150.40
55365;DHT22;41245;45.384;20.390;2023-07-09T13:38:43;845.60;2176.00
55365;DHT22;41245;45.384;20.390;2023-07-09T13:41:16;845.60;2201.60
55365;DHT22;41245;45.384;20.390;2023-07-09T13:43:46;845.60;2124.80
55365;DHT22;41245;45.384;20.390;2023-07-09T13:46:12;845.60;2150.40
55365;DHT22;41245;45.384;20.390;2023-07-09T13:48:40;845.70;2150.40
55365;DHT22;41245;45.384;20.390;2023-07-09T13:51:27;870.40;2176.00
55365;DHT22;41245;45.384;20.390;2023-07-09T13:53:55;870.40;2176.00
55365;DHT22;41245;45.384;20.390;2023-07-09T13:56:21;845.70;2176.00
55365;DHT22;41245;45.384;20.390;2023-07-09T13:58:47;845.70;2176.00
55365;DHT22;41245;45.384;20.390;2023-07-09T14:01:18;845.30;2022.40
55365;DHT22;41245;45.384;20.390;2023-07-09T14:03:45;845.20;2150.40
55365;DHT22;41245;45.384;20.390;2023-07-09T14:06:15;845.20;2022.40
55365;DHT22;41245;45.384;20.390;2023-07-09T14:08:42;845.10;1971.20
55365;DHT22;41245;45.384;20.390;2023-07-09T14:11:15;845.20;2073.60
55365;DHT22;41245;45.384;20.390;2023-07-09T14:13:41;845.20;2150.40
55365;DHT22;41245;45.384;20.390;2023-07-09T14:16:10;845.30;2124.80
55365;DHT22;41245;45.384;20.390;2023-07-09T14:18:36;845.30;1996.80
55365;DHT22;41245;45.384;20.390;2023-07-09T14:21:13;845.30;2124.80
55365;DHT22;41245;45.384;20.390;2023-07-09T14:23:39;845.00;2124.80
55365;DHT22;41245;45.384;20.390;2023-07-09T14:26:05;845.10;2048.00
55365;DHT22;41245;45.384;20.390;2023-07-09T14:28:31;845.10;2048.00
55365;DHT22;41245;45.384;20.390;2023-07-09T14:30:56;845.30;2048.00
55365;DHT22;41245;45.384;20.390;2023-07-09T14:33:22;845.50;2176.00
55365;DHT22;41245;45.384;20.390;2023-07-09T14:35:49;845.60;2150.40
55365;DHT22;41245;45.384;20.390;2023-07-09T14:40:46;845.40;2150.40
55365;DHT22;41245;45.384;20.390;2023-07-09T14:43:12;845.10;2022.40
55365;DHT22;41245;45.384;20.390;2023-07-09T14:45:40;845.20;2073.60
55365;DHT22;41245;45.384;20.390;2023-07-09T14:48:13;845.30;2099.20
55365;DHT22;41245;45.384;20.390;2023-07-09T14:50:40;845.10;1996.80
55365;DHT22;41245;45.384;20.390;2023-07-09T14:53:25;845.10;2099.20
55365;DHT22;41245;45.384;20.390;2023-07-09T14:55:52;845.10;2073.60
55365;DHT22;41245;45.384;20.390;2023-07-09T14:58:20;845.00;2124.80
55365;DHT22;41245;45.384;20.390;2023-07-09T15:00:46;845.10;2150.40
55365;DHT22;41245;45.384;20.390;2023-07-09T15:03:21;845.10;2099.20
55365;DHT22;41245;45.384;20.390;2023-07-09T15:05:48;844.90;2176.00
55365;DHT22;41245;45.384;20.390;2023-07-09T15:08:16;845.00;2124.80
55365;DHT22;41245;45.384;20.390;2023-07-09T15:10:43;845.20;2099.20
55365;DHT22;41245;45.384;20.390;2023-07-09T15:13:34;845.20;2150.40
55365;DHT22;41245;45.384;20.390;2023-07-09T15:16:01;845.40;2150.40
55365;DHT22;41245;45.384;20.390;2023-07-09T15:18:28;845.70;2150.40
55365;DHT22;41245;45.384;20.390;2023-07-09T15:20:58;845.60;2150.40
55365;DHT22;41245;45.384;20.390;2023-07-09T15:23:26;845.70;2176.00
55365;DHT22;41245;45.384;20.390;2023-07-09T15:25:52;870.40;2227.20
55365;DHT22;41245;45.384;20.390;2023-07-09T15:28:18;870.40;2201.60
55365;DHT22;41245;45.384;20.390;2023-07-09T15:30:44;870.40;2201.60
55365;DHT22;41245;45.384;20.390;2023-07-09T15:33:16;845.70;2227.20
55365;DHT22;41245;45.384;20.390;2023-07-09T15:35:43;845.60;2176.00
55365;DHT22;41245;45.384;20.390;2023-07-09T15:38:29;845.50;2150.40
55365;DHT22;41245;45.384;20.390;2023-07-09T15:40:56;845.50;2124.80
55365;DHT22;41245;45.384;20.390;2023-07-09T15:43:22;845.60;2176.00
55365;DHT22;41245;45.384;20.390;2023-07-09T15:45:50;845.40;2176.00
55365;DHT22;41245;45.384;20.390;2023-07-09T15:48:25;845.50;2176.00
55365;DHT22;41245;45.384;20.390;2023-07-09T15:50:52;845.40;2227.20
55365;DHT22;41245;45.384;20.390;2023-07-09T15:53:19;845.50;2201.60
55365;DHT22;41245;45.384;20.390;2023-07-09T15:55:45;845.50;2176.00
55365;DHT22;41245;45.384;20.390;2023-07-09T15:58:16;845.40;2201.60
55365;DHT22;41245;45.384;20.390;2023-07-09T16:00:44;845.30;2176.00
55365;DHT22;41245;45.384;20.390;2023-07-09T16:03:11;845.20;2150.40
55365;DHT22;41245;45.384;20.390;2023-07-09T16:05:37;845.20;2201.60
55365;DHT22;41245;45.384;20.390;2023-07-09T16:08:04;845.30;2073.60
55365;DHT22;41245;45.384;20.390;2023-07-09T16:10:31;845.10;1945.60
55365;DHT22;41245;45.384;20.390;2023-07-09T16:12:57;845.00;2073.60
55365;DHT22;41245;45.384;20.390;2023-07-09T16:15:24;844.80;2022.40
55365;DHT22;41245;45.384;20.390;2023-07-09T16:17:50;844.80;1971.20
55365;DHT22;41245;45.384;20.390;2023-07-09T16:20:21;820.10;1971.20
55365;DHT22;41245;45.384;20.390;2023-07-09T16:22:50;820.10;1971.20
55365;DHT22;41245;45.384;20.390;2023-07-09T16:25:21;820.00;1894.40
55365;DHT22;41245;45.384;20.390;2023-07-09T16:27:48;820.00;1971.20
55365;DHT22;41245;45.384;20.390;2023-07-09T16:30:17;819.90;1945.60
55365;DHT22;41245;45.384;20.390;2023-07-09T16:32:44;819.80;1945.60
55365;DHT22;41245;45.384;20.390;2023-07-09T16:35:14;819.70;1920.00
55365;DHT22;41245;45.384;20.390;2023-07-09T16:37:41;819.70;1817.60
55365;DHT22;41245;45.384;20.390;2023-07-09T16:40:15;819.50;1792.00
55365;DHT22;41245;45.384;20.390;2023-07-09T16:42:42;819.50;1766.40
55365;DHT22;41245;45.384;20.390;2023-07-09T16:45:09;819.40;1843.20
55365;DHT22;41245;45.384;20.390;2023-07-09T16:47:35;819.30;1868.80
55365;DHT22;41245;45.384;20.390;2023-07-09T16:50:00;819.20;1817.60
55365;DHT22;41245;45.384;20.390;2023-07-09T16:52:26;819.20;1766.40
55365;DHT22;41245;45.384;20.390;2023-07-09T16:54:53;819.20;1766.40
55365;DHT22;41245;45.384;20.390;2023-07-09T16:57:25;819.20;1817.60
55365;DHT22;41245;45.384;20.390;2023-07-09T16:59:53;794.50;1843.20
55365;DHT22;41245;45.384;20.390;2023-07-09T17:02:46;794.40;1792.00
55365;DHT22;41245;45.384;20.390;2023-07-09T17:05:12;794.40;1766.40
55365;DHT22;41245;45.384;20.390;2023-07-09T17:07:38;794.10;1715.20
55365;DHT22;41245;45.384;20.390;2023-07-09T17:10:04;794.10;1740.80
55365;DHT22;41245;45.384;20.390;2023-07-09T17:12:31;793.90;1715.20
55365;DHT22;41245;45.384;20.390;2023-07-09T17:14:57;793.90;1715.20
55365;DHT22;41245;45.384;20.390;2023-07-09T17:17:25;793.80;1689.60
55365;DHT22;41245;45.384;20.390;2023-07-09T17:19:51;793.80;1715.20
55365;DHT22;41245;45.384;20.390;2023-07-09T17:22:30;793.60;1638.40
55365;DHT22;41245;45.384;20.390;2023-07-09T17:24:57;768.70;1536.00
55365;DHT22;41245;45.384;20.390;2023-07-09T17:27:23;768.80;1612.80
55365;DHT22;41245;45.384;20.390;2023-07-09T17:29:48;768.80;1536.00
55365;DHT22;41245;45.384;20.390;2023-07-09T17:32:14;768.70;1561.60
55365;DHT22;41245;45.384;20.390;2023-07-09T17:34:41;768.70;1536.00
55365;DHT22;41245;45.384;20.390;2023-07-09T17:37:12;768.50;1612.80
55365;DHT22;41245;45.384;20.390;2023-07-09T17:39:39;768.30;1612.80
55365;DHT22;41245;45.384;20.390;2023-07-09T17:42:09;768.20;1587.20
55365;DHT22;41245;45.384;20.390;2023-07-09T17:44:36;768.10;1561.60
55365;DHT22;41245;45.384;20.390;2023-07-09T17:47:02;768.00;1433.60
55365;DHT22;41245;45.384;20.390;2023-07-09T17:49:31;768.00;1408.00
55365;DHT22;41245;45.384;20.390;2023-07-09T17:51:58;743.20;1408.00
55365;DHT22;41245;45.384;20.390;2023-07-09T17:54:25;743.20;1382.40
55365;DHT22;41245;45.384;20.390;2023-07-09T17:56:54;743.10;1356.80
55365;DHT22;41245;45.384;20.390;2023-07-09T17:59:25;743.00;1331.20
55365;DHT22;41245;45.384;20.390;2023-07-09T18:04:24;742.70;1254.40
55365;DHT22;41245;45.384;20.390;2023-07-09T18:06:50;742.60;1254.40
55365;DHT22;41245;45.384;20.390;2023-07-09T18:09:18;742.50;1280.00
55365;DHT22;41245;45.384;20.390;2023-07-09T18:11:46;717.70;1228.80
55365;DHT22;41245;45.384;20.390;2023-07-09T18:14:25;717.60;1228.80
55365;DHT22;41245;45.384;20.390;2023-07-09T18:16:52;717.60;1254.40
55365;DHT22;41245;45.384;20.390;2023-07-09T18:19:26;717.40;1228.80
55365;DHT22;41245;45.384;20.390;2023-07-09T18:21:55;717.30;1280.00
55365;DHT22;41245;45.384;20.390;2023-07-09T18:24:24;717.20;1075.20
55365;DHT22;41245;45.384;20.390;2023-07-09T18:26:49;717.10;1152.00
55365;DHT22;41245;45.384;20.390;2023-07-09T18:29:32;717.00;1305.60
55365;DHT22;41245;45.384;20.390;2023-07-09T18:32:00;716.90;1100.80
55365;DHT22;41245;45.384;20.390;2023-07-09T18:34:30;716.80;1331.20
55365;DHT22;41245;45.384;20.390;2023-07-09T18:36:56;716.80;1126.40
55365;DHT22;41245;45.384;20.390;2023-07-09T18:39:22;692.10;1254.40
55365;DHT22;41245;45.384;20.390;2023-07-09T18:41:48;692.00;1152.00
55365;DHT22;41245;45.384;20.390;2023-07-09T18:44:19;691.80;1280.00
55365;DHT22;41245;45.384;20.390;2023-07-09T18:46:46;691.80;1280.00
55365;DHT22;41245;45.384;20.390;2023-07-09T18:49:12;691.70;1228.80
55365;DHT22;41245;45.384;20.390;2023-07-09T18:51:39;691.70;1254.40
55365;DHT22;41245;45.384;20.390;2023-07-09T18:54:14;691.60;1203.20
55365;DHT22;41245;45.384;20.390;2023-07-09T18:56:43;691.60;1024.00
55365;DHT22;41245;45.384;20.390;2023-07-09T18:59:18;691.50;947.20
55365;DHT22;41245;45.384;20.390;2023-07-09T19:01:45;691.40;998.40
55365;DHT22;41245;45.384;20.390;2023-07-09T19:04:19;691.40;972.80
55365;DHT22;41245;45.384;20.390;2023-07-09T19:06:46;691.30;1049.60
55365;DHT22;41245;45.384;20.390;2023-07-09T19:09:31;691.30;998.40
55365;DHT22;41245;45.384;20.390;2023-07-09T19:11:57;691.20;921.60
55365;DHT22;41245;45.384;20.390;2023-07-09T19:14:22;691.20;947.20
55365;DHT22;41245;45.384;20.390;2023-07-09T19:16:55;691.20;947.20
55365;DHT22;41245;45.384;20.390;2023-07-09T19:19:22;666.40;870.40
55365;DHT22;41245;45.384;20.390;2023-07-09T19:21:50;666.40;921.60
55365;DHT22;41245;45.384;20.390;2023-07-09T19:24:22;666.40;896.00
55365;DHT22;41245;45.384;20.390;2023-07-09T19:26:50;666.30;1126.40
55365;DHT22;41245;45.384;20.390;2023-07-09T19:29:17;666.30;1075.20
55365;DHT22;41245;45.384;20.390;2023-07-09T19:31:45;666.30;896.00
55365;DHT22;41245;45.384;20.390;2023-07-09T19:34:23;666.10;972.80
55365;DHT22;41245;45.384;20.390;2023-07-09T19:36:55;666.10;947.20
55365;DHT22;41245;45.384;20.390;2023-07-09T19:39:32;666.10;921.60
55365;DHT22;41245;45.384;20.390;2023-07-09T19:44:31;666.00;844.80
55365;DHT22;41245;45.384;20.390;2023-07-09T19:47:00;666.00;896.00
55365;DHT22;41245;45.384;20.390;2023-07-09T19:49:27;665.90;819.20
55365;DHT22;41245;45.384;20.390;2023-07-09T19:51:53;665.90;896.00
55365;DHT22;41245;45.384;20.390;2023-07-09T19:54:19;665.90;972.80
55365;DHT22;41245;45.384;20.390;2023-07-09T19:56:46;665.90;972.80
55365;DHT22;41245;45.384;20.390;2023-07-09T19:59:13;665.80;870.40
55365;DHT22;41245;45.384;20.390;2023-07-09T20:01:39;665.80;793.60
55365;DHT22;41245;45.384;20.390;2023-07-09T20:04:06;665.70;819.20
55365;DHT22;41245;45.384;20.390;2023-07-09T20:06:32;665.70;768.00
55365;DHT22;41245;45.384;20.390;2023-07-09T20:08:58;665.70;768.00
55365;DHT22;41245;45.384;20.390;2023-07-09T20:11:25;665.70;972.80
55365;DHT22;41245;45.384;20.390;2023-07-09T20:13:52;665.60;1049.60
55365;DHT22;41245;45.384;20.390;2023-07-09T20:16:26;640.90;1024.00
55365;DHT22;41245;45.384;20.390;2023-07-09T20:18:54;640.90;870.40
55365;DHT22;41245;45.384;20.390;2023-07-09T20:21:23;640.90;870.40
55365;DHT22;41245;45.384;20.390;2023-07-09T20:23:49;640.90;716.80
55365;DHT22;41245;45.384;20.390;2023-07-09T20:26:15;640.80;819.20
55365;DHT22;41245;45.384;20.390;2023-07-09T20:28:40;640.80;793.60
55365;DHT22;41245;45.384;20.390;2023-07-09T20:31:23;640.70;742.40
55365;DHT22;41245;45.384;20.390;2023-07-09T20:33:59;640.70;742.40
55365;DHT22;41245;45.384;20.390;2023-07-09T20:36:26;640.60;742.40
55365;DHT22;41245;45.384;20.390;2023-07-09T20:38:51;640.60;716.80
55365;DHT22;41245;45.384;20.390;2023-07-09T20:41:18;640.60;793.60
55365;DHT22;41245;45.384;20.390;2023-07-09T20:43:44;640.50;972.80
55365;DHT22;41245;45.384;20.390;2023-07-09T20:46:10;640.50;972.80